sensor_id;sensor_type;location;lat;lon;timestamp;temperature;humidity
35463;DHT22;21578;47.892;9.970;2023-03-14T00:03:19;9.80;96.60
35463;DHT22;21578;47.892;9.970;2023-03-14T00:08:07;9.70;96.60
35463;DHT22;21578;47.892;9.970;2023-03-14T00:12:54;9.50;96.60
35463;DHT22;21578;47.892;9.970;2023-03-14T00:17:43;9.30;96.60
35463;DHT22;21578;47.892;9.970;2023-03-14T00:22:30;9.10;96.60
35463;DHT22;21578;47.892;9.970;2023-03-14T00:27:18;9.00;96.60
35463;DHT22;21578;47.892;9.970;2023-03-14T00:32:05;8.90;96.60
35463;DHT22;21578;47.892;9.970;2023-03-14T00:36:52;8.80;96.60
35463;DHT22;21578;47.892;9.970;2023-03-14T00:41:39;8.70;96.60
35463;DHT22;21578;47.892;9.970;2023-03-14T00:46:28;8.60;96.60
35463;DHT22;21578;47.892;9.970;2023-03-14T00:51:16;8.40;96.60
35463;DHT22;21578;47.892;9.970;2023-03-14T00:56:04;8.30;96.60
35463;DHT22;21578;47.892;9.970;2023-03-14T01:00:51;8.10;96.60
35463;DHT22;21578;47.892;9.970;2023-03-14T01:05:40;8.00;96.60
35463;DHT22;21578;47.892;9.970;2023-03-14T01:10:27;8.00;96.60
35463;DHT22;21578;47.892;9.970;2023-03-14T01:15:15;7.90;96.60
35463;DHT22;21578;47.892;9.970;2023-03-14T01:20:02;7.90;96.60
35463;DHT22;21578;47.892;9.970;2023-03-14T01:24:51;7.80;96.60
35463;DHT22;21578;47.892;9.970;2023-03-14T01:29:38;7.80;96.60
35463;DHT22;21578;47.892;9.970;2023-03-14T01:34:25;7.70;96.60
35463;DHT22;21578;47.892;9.970;2023-03-14T01:39:12;7.80;96.60
35463;DHT22;21578;47.892;9.970;2023-03-14T01:44:01;7.80;96.60
35463;DHT22;21578;47.892;9.970;2023-03-14T01:48:54;7.80;96.60
35463;DHT22;21578;47.892;9.970;2023-03-14T01:53:42;7.70;96.60
35463;DHT22;21578;47.892;9.970;2023-03-14T01:58:31;7.70;96.60
35463;DHT22;21578;47.892;9.970;2023-03-14T02:03:22;7.60;96.60
35463;DHT22;21578;47.892;9.970;2023-03-14T02:08:12;7.60;96.60
35463;DHT22;21578;47.892;9.970;2023-03-14T02:13:03;7.50;96.60
35463;DHT22;21578;47.892;9.970;2023-03-14T02:17:51;7.40;96.60
35463;DHT22;21578;47.892;9.970;2023-03-14T02:22:42;7.40;96.60
35463;DHT22;21578;47.892;9.970;2023-03-14T02:27:32;7.40;96.60
35463;DHT22;21578;47.892;9.970;2023-03-14T02:32:20;7.30;96.60
35463;DHT22;21578;47.892;9.970;2023-03-14T02:37:09;7.30;96.60
35463;DHT22;21578;47.892;9.970;2023-03-14T02:41:56;7.20;96.60
35463;DHT22;21578;47.892;9.970;2023-03-14T02:46:45;7.20;96.60
35463;DHT22;21578;47.892;9.970;2023-03-14T02:51:32;7.10;96.60
35463;DHT22;21578;47.892;9.970;2023-03-14T02:56:19;7.10;96.60
35463;DHT22;21578;47.892;9.970;2023-03-14T03:01:06;7.10;96.60
35463;DHT22;21578;47.892;9.970;2023-03-14T03:05:56;7.10;96.60
35463;DHT22;21578;47.892;9.970;2023-03-14T03:10:43;7.10;96.60
35463;DHT22;21578;47.892;9.970;2023-03-14T03:15:30;7.10;96.60
35463;DHT22;21578;47.892;9.970;2023-03-14T03:20:17;7.10;96.60
35463;DHT22;21578;47.892;9.970;2023-03-14T03:25:07;7.10;96.60
35463;DHT22;21578;47.892;9.970;2023-03-14T03:29:54;7.00;96.60
35463;DHT22;21578;47.892;9.970;2023-03-14T03:34:41;7.10;96.60
35463;DHT22;21578;47.892;9.970;2023-03-14T03:39:28;7.10;96.60
35463;DHT22;21578;47.892;9.970;2023-03-14T03:44:16;7.00;96.60
35463;DHT22;21578;47.892;9.970;2023-03-14T03:49:03;6.90;96.60
35463;DHT22;21578;47.892;9.970;2023-03-14T03:53:50;6.80;96.60
35463;DHT22;21578;47.892;9.970;2023-03-14T03:58:37;6.80;96.60
35463;DHT22;21578;47.892;9.970;2023-03-14T04:03:26;6.70;96.60
35463;DHT22;21578;47.892;9.970;2023-03-14T04:08:13;6.80;96.60
35463;DHT22;21578;47.892;9.970;2023-03-14T04:13:00;6.80;96.60
35463;DHT22;21578;47.892;9.970;2023-03-14T04:17:47;6.70;96.60
35463;DHT22;21578;47.892;9.970;2023-03-14T04:22:35;6.70;96.60
35463;DHT22;21578;47.892;9.970;2023-03-14T04:27:22;6.80;96.60
35463;DHT22;21578;47.892;9.970;2023-03-14T04:32:09;6.80;96.60
35463;DHT22;21578;47.892;9.970;2023-03-14T04:36:56;6.80;96.60
35463;DHT22;21578;47.892;9.970;2023-03-14T04:41:45;6.80;96.60
35463;DHT22;21578;47.892;9.970;2023-03-14T04:46:32;6.80;96.60
35463;DHT22;21578;47.892;9.970;2023-03-14T04:51:19;6.80;96.60
35463;DHT22;21578;47.892;9.970;2023-03-14T04:56:09;6.70;96.60
35463;DHT22;21578;47.892;9.970;2023-03-14T05:01:03;6.80;96.60
35463;DHT22;21578;47.892;9.970;2023-03-14T05:05:50;6.80;96.60
35463;DHT22;21578;47.892;9.970;2023-03-14T05:10:37;6.80;96.60
35463;DHT22;21578;47.892;9.970;2023-03-14T05:15:24;6.70;96.60
35463;DHT22;21578;47.892;9.970;2023-03-14T05:20:12;6.60;96.60
35463;DHT22;21578;47.892;9.970;2023-03-14T05:24:59;6.60;96.60
35463;DHT22;21578;47.892;9.970;2023-03-14T05:29:47;6.60;96.60
35463;DHT22;21578;47.892;9.970;2023-03-14T05:34:34;6.60;96.60
35463;DHT22;21578;47.892;9.970;2023-03-14T05:39:23;6.60;96.60
35463;DHT22;21578;47.892;9.970;2023-03-14T05:44:10;6.60;96.60
35463;DHT22;21578;47.892;9.970;2023-03-14T05:48:57;6.60;96.60
35463;DHT22;21578;47.892;9.970;2023-03-14T05:53:44;6.60;96.60
35463;DHT22;21578;47.892;9.970;2023-03-14T05:58:32;6.60;96.60
35463;DHT22;21578;47.892;9.970;2023-03-14T06:03:19;6.60;96.60
35463;DHT22;21578;47.892;9.970;2023-03-14T06:08:06;6.50;96.60
35463;DHT22;21578;47.892;9.970;2023-03-14T06:12:52;6.50;96.60
35463;DHT22;21578;47.892;9.970;2023-03-14T06:17:41;6.50;96.60
35463;DHT22;21578;47.892;9.970;2023-03-14T06:22:28;6.60;96.60
35463;DHT22;21578;47.892;9.970;2023-03-14T06:27:14;6.50;96.60
35463;DHT22;21578;47.892;9.970;2023-03-14T06:32:01;6.50;96.60
35463;DHT22;21578;47.892;9.970;2023-03-14T06:36:50;6.60;96.60
35463;DHT22;21578;47.892;9.970;2023-03-14T06:41:37;6.60;96.60
35463;DHT22;21578;47.892;9.970;2023-03-14T06:46:23;6.60;96.60
35463;DHT22;21578;47.892;9.970;2023-03-14T06:51:10;6.70;96.60
35463;DHT22;21578;47.892;9.970;2023-03-14T06:55:59;6.70;96.60
35463;DHT22;21578;47.892;9.970;2023-03-14T07:00:45;6.80;96.60
35463;DHT22;21578;47.892;9.970;2023-03-14T07:05:32;6.80;96.60
35463;DHT22;21578;47.892;9.970;2023-03-14T07:10:19;6.70;96.60
35463;DHT22;21578;47.892;9.970;2023-03-14T07:15:09;6.80;96.60
35463;DHT22;21578;47.892;9.970;2023-03-14T07:19:56;6.80;96.60
35463;DHT22;21578;47.892;9.970;2023-03-14T07:24:42;6.90;96.60
35463;DHT22;21578;47.892;9.970;2023-03-14T07:29:29;7.00;96.60
35463;DHT22;21578;47.892;9.970;2023-03-14T07:34:17;7.10;96.60
35463;DHT22;21578;47.892;9.970;2023-03-14T07:39:05;7.10;96.60
35463;DHT22;21578;47.892;9.970;2023-03-14T07:43:51;7.30;96.60
35463;DHT22;21578;47.892;9.970;2023-03-14T07:48:38;7.30;96.60
35463;DHT22;21578;47.892;9.970;2023-03-14T07:53:27;7.40;96.60
35463;DHT22;21578;47.892;9.970;2023-03-14T07:58:14;7.30;96.60
35463;DHT22;21578;47.892;9.970;2023-03-14T08:03:01;7.40;96.60
35463;DHT22;21578;47.892;9.970;2023-03-14T08:07:48;7.40;96.60
35463;DHT22;21578;47.892;9.970;2023-03-14T08:12:36;7.50;96.60
35463;DHT22;21578;47.892;9.970;2023-03-14T08:17:23;7.60;96.60
35463;DHT22;21578;47.892;9.970;2023-03-14T08:22:10;7.70;96.60
35463;DHT22;21578;47.892;9.970;2023-03-14T08:26:56;7.80;96.60
35463;DHT22;21578;47.892;9.970;2023-03-14T08:31:45;7.90;96.60
35463;DHT22;21578;47.892;9.970;2023-03-14T08:36:32;8.00;96.60
35463;DHT22;21578;47.892;9.970;2023-03-14T08:41:19;8.20;96.60
35463;DHT22;21578;47.892;9.970;2023-03-14T08:46:06;8.30;96.60
35463;DHT22;21578;47.892;9.970;2023-03-14T08:50:55;8.40;96.60
35463;DHT22;21578;47.892;9.970;2023-03-14T08:55:42;8.50;96.60
35463;DHT22;21578;47.892;9.970;2023-03-14T09:00:28;8.60;96.60
35463;DHT22;21578;47.892;9.970;2023-03-14T09:05:15;8.70;96.60
35463;DHT22;21578;47.892;9.970;2023-03-14T09:10:05;8.60;96.60
35463;DHT22;21578;47.892;9.970;2023-03-14T09:14:52;8.60;96.60
35463;DHT22;21578;47.892;9.970;2023-03-14T09:19:39;8.70;96.60
35463;DHT22;21578;47.892;9.970;2023-03-14T09:24:26;8.80;96.60
35463;DHT22;21578;47.892;9.970;2023-03-14T09:29:14;8.80;96.30
35463;DHT22;21578;47.892;9.970;2023-03-14T09:34:01;8.90;96.50
35463;DHT22;21578;47.892;9.970;2023-03-14T11:22:14;9.30;96.60
35463;DHT22;21578;47.892;9.970;2023-03-14T11:27:09;9.10;96.60
35463;DHT22;21578;47.892;9.970;2023-03-14T11:32:01;9.20;96.60
35463;DHT22;21578;47.892;9.970;2023-03-14T11:36:51;9.40;96.60
35463;DHT22;21578;47.892;9.970;2023-03-14T11:41:43;9.30;96.60
35463;DHT22;21578;47.892;9.970;2023-03-14T11:46:34;9.20;96.60
35463;DHT22;21578;47.892;9.970;2023-03-14T11:51:25;8.80;96.60
35463;DHT22;21578;47.892;9.970;2023-03-14T11:56:18;8.50;96.60
35463;DHT22;21578;47.892;9.970;2023-03-14T12:01:10;8.30;96.60
35463;DHT22;21578;47.892;9.970;2023-03-14T12:06:09;8.20;96.60
35463;DHT22;21578;47.892;9.970;2023-03-14T12:11:02;8.30;96.60
35463;DHT22;21578;47.892;9.970;2023-03-14T12:15:55;7.90;96.60
35463;DHT22;21578;47.892;9.970;2023-03-14T12:20:51;7.70;96.60
35463;DHT22;21578;47.892;9.970;2023-03-14T12:25:39;7.60;96.60
35463;DHT22;21578;47.892;9.970;2023-03-14T12:30:28;7.50;96.60
35463;DHT22;21578;47.892;9.970;2023-03-14T12:35:35;7.40;96.60
35463;DHT22;21578;47.892;9.970;2023-03-14T12:40:30;7.30;96.60
35463;DHT22;21578;47.892;9.970;2023-03-14T12:45:24;7.20;96.60
35463;DHT22;21578;47.892;9.970;2023-03-14T12:50:32;7.00;96.60
35463;DHT22;21578;47.892;9.970;2023-03-14T12:55:27;6.90;96.60
35463;DHT22;21578;47.892;9.970;2023-03-14T13:00:20;6.80;96.60
35463;DHT22;21578;47.892;9.970;2023-03-14T13:05:11;6.70;96.60
35463;DHT22;21578;47.892;9.970;2023-03-14T13:10:21;6.60;96.60
35463;DHT22;21578;47.892;9.970;2023-03-14T13:15:29;6.40;96.60
35463;DHT22;21578;47.892;9.970;2023-03-14T13:20:22;6.30;96.60
35463;DHT22;21578;47.892;9.970;2023-03-14T13:25:10;6.20;96.60
35463;DHT22;21578;47.892;9.970;2023-03-14T13:29:57;6.20;96.60
35463;DHT22;21578;47.892;9.970;2023-03-14T13:34:46;6.30;96.60
35463;DHT22;21578;47.892;9.970;2023-03-14T13:39:34;6.20;96.60
35463;DHT22;21578;47.892;9.970;2023-03-14T13:44:24;6.20;96.60
35463;DHT22;21578;47.892;9.970;2023-03-14T13:49:20;6.10;96.60
35463;DHT22;21578;47.892;9.970;2023-03-14T13:54:16;6.10;96.60
35463;DHT22;21578;47.892;9.970;2023-03-14T13:59:04;6.10;96.60
35463;DHT22;21578;47.892;9.970;2023-03-14T14:03:53;6.20;96.60
35463;DHT22;21578;47.892;9.970;2023-03-14T14:08:41;6.10;96.60
35463;DHT22;21578;47.892;9.970;2023-03-14T14:13:32;5.70;96.60
35463;DHT22;21578;47.892;9.970;2023-03-14T14:18:23;5.60;96.60
35463;DHT22;21578;47.892;9.970;2023-03-14T14:23:14;5.60;96.60
35463;DHT22;21578;47.892;9.970;2023-03-14T14:28:15;5.50;96.60
35463;DHT22;21578;47.892;9.970;2023-03-14T14:33:18;5.50;96.60
35463;DHT22;21578;47.892;9.970;2023-03-14T14:38:11;5.60;96.60
35463;DHT22;21578;47.892;9.970;2023-03-14T14:43:03;5.60;96.60
35463;DHT22;21578;47.892;9.970;2023-03-14T14:47:52;5.60;96.60
35463;DHT22;21578;47.892;9.970;2023-03-14T14:52:42;5.70;96.60
35463;DHT22;21578;47.892;9.970;2023-03-14T14:57:32;5.80;96.60
35463;DHT22;21578;47.892;9.970;2023-03-14T15:02:29;6.00;96.60
35463;DHT22;21578;47.892;9.970;2023-03-14T15:07:17;6.10;96.60
35463;DHT22;21578;47.892;9.970;2023-03-14T15:12:05;6.20;96.60
35463;DHT22;21578;47.892;9.970;2023-03-14T15:16:52;6.30;96.60
35463;DHT22;21578;47.892;9.970;2023-03-14T15:21:39;6.30;96.60
35463;DHT22;21578;47.892;9.970;2023-03-14T15:26:27;6.20;96.60
35463;DHT22;21578;47.892;9.970;2023-03-14T15:31:17;6.20;96.60
35463;DHT22;21578;47.892;9.970;2023-03-14T15:36:06;6.00;96.60
35463;DHT22;21578;47.892;9.970;2023-03-14T15:40:53;5.90;96.60
35463;DHT22;21578;47.892;9.970;2023-03-14T15:45:40;5.60;96.60
35463;DHT22;21578;47.892;9.970;2023-03-14T15:50:29;5.30;96.60
35463;DHT22;21578;47.892;9.970;2023-03-14T15:55:16;5.30;96.60
35463;DHT22;21578;47.892;9.970;2023-03-14T16:00:04;5.30;96.60
35463;DHT22;21578;47.892;9.970;2023-03-14T16:04:55;5.40;96.60
35463;DHT22;21578;47.892;9.970;2023-03-14T16:09:43;5.40;96.60
35463;DHT22;21578;47.892;9.970;2023-03-14T16:14:30;5.40;96.60
35463;DHT22;21578;47.892;9.970;2023-03-14T16:19:17;5.40;95.20
35463;DHT22;21578;47.892;9.970;2023-03-14T16:24:05;5.40;94.90
35463;DHT22;21578;47.892;9.970;2023-03-14T16:28:53;5.40;94.00
35463;DHT22;21578;47.892;9.970;2023-03-14T16:33:40;5.30;94.20
35463;DHT22;21578;47.892;9.970;2023-03-14T16:38:27;5.30;95.50
35463;DHT22;21578;47.892;9.970;2023-03-14T16:43:14;5.30;93.80
35463;DHT22;21578;47.892;9.970;2023-03-14T16:48:03;5.20;94.30
35463;DHT22;21578;47.892;9.970;2023-03-14T16:52:49;5.20;95.80
35463;DHT22;21578;47.892;9.970;2023-03-14T16:57:36;5.20;96.10
35463;DHT22;21578;47.892;9.970;2023-03-14T17:02:23;5.20;96.50
35463;DHT22;21578;47.892;9.970;2023-03-14T17:07:12;5.20;96.60
35463;DHT22;21578;47.892;9.970;2023-03-14T17:11:58;5.20;96.60
35463;DHT22;21578;47.892;9.970;2023-03-14T17:16:46;5.20;96.60
35463;DHT22;21578;47.892;9.970;2023-03-14T17:21:33;5.10;96.60
35463;DHT22;21578;47.892;9.970;2023-03-14T17:26:22;5.10;96.60
35463;DHT22;21578;47.892;9.970;2023-03-14T17:31:13;4.90;96.60
35463;DHT22;21578;47.892;9.970;2023-03-14T17:36:00;4.90;96.60
35463;DHT22;21578;47.892;9.970;2023-03-14T17:40:47;4.90;96.60
35463;DHT22;21578;47.892;9.970;2023-03-14T17:45:36;4.90;96.60
35463;DHT22;21578;47.892;9.970;2023-03-14T17:50:23;4.80;96.60
35463;DHT22;21578;47.892;9.970;2023-03-14T17:55:10;4.80;96.60
35463;DHT22;21578;47.892;9.970;2023-03-14T17:59:57;4.80;96.60
35463;DHT22;21578;47.892;9.970;2023-03-14T18:04:46;4.80;96.60
35463;DHT22;21578;47.892;9.970;2023-03-14T18:09:33;4.70;96.60
35463;DHT22;21578;47.892;9.970;2023-03-14T18:14:20;4.70;96.60
35463;DHT22;21578;47.892;9.970;2023-03-14T18:19:07;4.70;96.60
35463;DHT22;21578;47.892;9.970;2023-03-14T18:23:56;4.70;96.60
35463;DHT22;21578;47.892;9.970;2023-03-14T18:28:43;4.90;96.60
35463;DHT22;21578;47.892;9.970;2023-03-14T18:33:30;4.90;96.60
35463;DHT22;21578;47.892;9.970;2023-03-14T18:38:22;5.00;96.60
35463;DHT22;21578;47.892;9.970;2023-03-14T18:43:10;4.90;96.60
35463;DHT22;21578;47.892;9.970;2023-03-14T18:47:57;4.90;96.60
35463;DHT22;21578;47.892;9.970;2023-03-14T18:52:44;5.00;96.60
35463;DHT22;21578;47.892;9.970;2023-03-14T18:57:31;5.00;96.60
35463;DHT22;21578;47.892;9.970;2023-03-14T19:02:19;4.90;96.60
35463;DHT22;21578;47.892;9.970;2023-03-14T19:07:06;5.00;96.60
35463;DHT22;21578;47.892;9.970;2023-03-14T19:11:53;4.10;96.60
35463;DHT22;21578;47.892;9.970;2023-03-14T19:16:39;3.30;96.60
35463;DHT22;21578;47.892;9.970;2023-03-14T19:21:29;3.00;96.60
35463;DHT22;21578;47.892;9.970;2023-03-14T19:26:16;2.60;96.60
35463;DHT22;21578;47.892;9.970;2023-03-14T19:31:04;2.50;96.60
35463;DHT22;21578;47.892;9.970;2023-03-14T19:35:51;2.60;96.60
35463;DHT22;21578;47.892;9.970;2023-03-14T19:40:41;2.60;96.60
35463;DHT22;21578;47.892;9.970;2023-03-14T19:45:29;2.70;96.60
35463;DHT22;21578;47.892;9.970;2023-03-14T19:50:17;2.70;96.60
35463;DHT22;21578;47.892;9.970;2023-03-14T19:55:04;2.80;96.60
35463;DHT22;21578;47.892;9.970;2023-03-14T19:59:52;2.90;96.60
35463;DHT22;21578;47.892;9.970;2023-03-14T20:04:39;2.90;96.60
35463;DHT22;21578;47.892;9.970;2023-03-14T20:09:28;2.80;96.60
35463;DHT22;21578;47.892;9.970;2023-03-14T20:14:16;2.80;96.60
35463;DHT22;21578;47.892;9.970;2023-03-14T20:19:05;2.80;96.60
35463;DHT22;21578;47.892;9.970;2023-03-14T20:23:52;2.90;96.60
35463;DHT22;21578;47.892;9.970;2023-03-14T20:28:39;2.90;96.60
35463;DHT22;21578;47.892;9.970;2023-03-14T20:33:29;2.90;96.60
35463;DHT22;21578;47.892;9.970;2023-03-14T20:38:21;3.00;96.60
35463;DHT22;21578;47.892;9.970;2023-03-14T20:43:10;3.10;96.60
35463;DHT22;21578;47.892;9.970;2023-03-14T20:47:57;3.10;96.60
35463;DHT22;21578;47.892;9.970;2023-03-14T20:52:44;3.10;96.60
35463;DHT22;21578;47.892;9.970;2023-03-14T20:57:33;3.20;96.60
35463;DHT22;21578;47.892;9.970;2023-03-14T21:02:20;3.20;96.60
35463;DHT22;21578;47.892;9.970;2023-03-14T21:07:07;3.20;96.60
35463;DHT22;21578;47.892;9.970;2023-03-14T21:11:53;3.20;96.60
35463;DHT22;21578;47.892;9.970;2023-03-14T21:16:42;3.20;96.60
35463;DHT22;21578;47.892;9.970;2023-03-14T21:21:29;3.20;96.60
35463;DHT22;21578;47.892;9.970;2023-03-14T21:26:16;3.40;96.60
35463;DHT22;21578;47.892;9.970;2023-03-14T21:31:03;3.40;96.60
35463;DHT22;21578;47.892;9.970;2023-03-14T21:35:53;3.40;96.60
35463;DHT22;21578;47.892;9.970;2023-03-14T21:40:39;3.40;96.60
35463;DHT22;21578;47.892;9.970;2023-03-14T21:45:26;3.30;96.60
35463;DHT22;21578;47.892;9.970;2023-03-14T21:50:13;3.30;96.60
35463;DHT22;21578;47.892;9.970;2023-03-14T21:55:02;3.30;96.60
35463;DHT22;21578;47.892;9.970;2023-03-14T21:59:49;3.30;96.60
35463;DHT22;21578;47.892;9.970;2023-03-14T22:04:36;3.30;96.60
35463;DHT22;21578;47.892;9.970;2023-03-14T22:09:23;3.30;96.60
35463;DHT22;21578;47.892;9.970;2023-03-14T23:22:36;3.00;96.60
35463;DHT22;21578;47.892;9.970;2023-03-14T23:27:23;2.90;96.60
35463;DHT22;21578;47.892;9.970;2023-03-14T23:32:09;2.90;96.60
35463;DHT22;21578;47.892;9.970;2023-03-14T23:36:56;3.00;96.60
35463;DHT22;21578;47.892;9.970;2023-03-14T23:41:45;3.00;96.60
35463;DHT22;21578;47.892;9.970;2023-03-14T23:46:32;3.10;96.60
35463;DHT22;21578;47.892;9.970;2023-03-14T23:51:18;3.10;96.60
35463;DHT22;21578;47.892;9.970;2023-03-14T23:56:06;3.10;96.60
